createdAt,value
2018-01-21T00:00:21.494Z,91.47
2018-01-21T00:01:01.959Z,91.18
2018-01-21T00:01:42.573Z,90.99
2018-01-21T00:02:23.169Z,91.28
2018-01-21T00:03:03.702Z,92.03
2018-01-21T00:03:44.275Z,91.85
2018-01-21T00:04:24.811Z,90.99
2018-01-21T00:05:05.329Z,91.66
2018-01-21T00:05:45.862Z,91.56
2018-01-21T00:06:26.475Z,91.75
2018-01-21T00:07:07.022Z,91.28
2018-01-21T00:07:47.820Z,91.66
2018-01-21T00:08:28.509Z,91.94
2018-01-21T00:09:08.996Z,92.03
2018-01-21T00:09:49.560Z,91.66
2018-01-21T00:10:30.040Z,91.85
2018-01-21T00:11:10.607Z,91.94
2018-01-21T00:11:51.152Z,91.75
2018-01-21T00:12:31.743Z,92.32
2018-01-21T00:13:12.280Z,92.32
2018-01-21T00:13:52.793Z,92.51
2018-01-21T00:14:33.302Z,92.03
2018-01-21T00:15:13.906Z,92.13
2018-01-21T00:15:54.466Z,92.32
2018-01-21T00:16:35.013Z,92.22
2018-01-21T00:17:15.563Z,92.13
2018-01-21T00:17:56.170Z,92.41
2018-01-21T00:18:36.732Z,92.61
2018-01-21T00:19:17.299Z,91.75
2018-01-21T00:19:57.885Z,91.56
2018-01-21T00:20:38.419Z,91.56
2018-01-21T00:21:18.979Z,91.47
2018-01-21T00:21:59.524Z,92.13
2018-01-21T00:22:40.084Z,92.22
2018-01-21T00:23:20.590Z,92.51
2018-01-21T00:24:01.103Z,92.41
2018-01-21T00:24:41.652Z,92.32
2018-01-21T00:25:22.218Z,92.03
2018-01-21T00:26:02.767Z,92.13
2018-01-21T00:26:43.548Z,92.13
2018-01-21T00:27:24.118Z,92.32
2018-01-21T00:28:04.635Z,92.32
2018-01-21T00:28:45.182Z,91.51
2018-01-21T00:29:25.730Z,91.42
2018-01-21T00:30:06.312Z,91.03
2018-01-21T00:30:46.912Z,90.37
2018-01-21T00:31:27.515Z,90.33
2018-01-21T00:32:07.982Z,90.52
2018-01-21T00:32:48.670Z,90.47
2018-01-21T00:33:29.277Z,90.14
2018-01-21T00:34:09.800Z,90.52
2018-01-21T00:34:50.323Z,90.89
2018-01-21T00:35:30.916Z,90.61
2018-01-21T00:36:11.407Z,90.61
2018-01-21T00:36:51.986Z,90.61
2018-01-21T00:37:32.469Z,90.42
2018-01-21T00:38:13.065Z,90.61
2018-01-21T00:38:53.703Z,90.08
2018-01-21T00:39:34.224Z,90.23
2018-01-21T00:40:14.748Z,89.85
2018-01-21T00:40:55.317Z,89.89
2018-01-21T00:41:35.846Z,90.75
2018-01-21T00:42:16.458Z,90.42
2018-01-21T00:42:56.976Z,90.61
2018-01-21T00:43:37.517Z,90.33
2018-01-21T00:44:18.066Z,90.52
2018-01-21T00:44:58.652Z,90.61
2018-01-21T00:45:39.200Z,90.14
2018-01-21T00:46:19.704Z,90.33
2018-01-21T00:47:00.229Z,89.94
2018-01-21T00:47:40.747Z,90.04
2018-01-21T00:48:21.292Z,90.52
2018-01-21T00:49:01.856Z,90.52
2018-01-21T00:49:42.411Z,90.52
2018-01-21T00:50:22.903Z,90.42
2018-01-21T00:52:44.236Z,90.89
2018-01-21T00:53:24.752Z,90.8
2018-01-21T00:54:05.299Z,90.61
2018-01-21T00:54:45.857Z,90.61
2018-01-21T00:55:26.411Z,90.61
2018-01-21T00:56:06.935Z,90.8
2018-01-21T00:56:47.489Z,89.94
2018-01-21T00:57:28.056Z,90.52
2018-01-21T00:58:08.580Z,90.61
2018-01-21T00:58:49.120Z,90.8
2018-01-21T00:59:29.689Z,90.61
2018-01-21T01:00:10.258Z,90.52
2018-01-21T01:00:50.775Z,90.33
2018-01-21T01:01:31.281Z,90.23
2018-01-21T01:02:11.801Z,90.23
2018-01-21T01:02:52.372Z,89.75
2018-01-21T01:03:32.972Z,89.37
2018-01-21T01:04:13.452Z,89.85
2018-01-21T01:04:54.006Z,90.8
2018-01-21T01:05:34.551Z,90.52
2018-01-21T01:06:15.113Z,90.33
2018-01-21T01:06:55.670Z,90.7
2018-01-21T01:07:36.222Z,90.14
2018-01-21T01:08:16.750Z,90.7
2018-01-21T01:08:57.282Z,90.23
2018-01-21T01:09:37.784Z,90.42
2018-01-21T01:10:18.362Z,90.14
2018-01-21T01:10:58.870Z,89.85
2018-01-21T01:11:39.400Z,89.75
2018-01-21T01:12:19.938Z,89.47
2018-01-21T01:13:00.535Z,89.56
2018-01-21T01:13:40.969Z,90.04
2018-01-21T01:14:21.519Z,90.04
2018-01-21T01:15:02.068Z,89.75
2018-01-21T01:15:42.615Z,89.85
2018-01-21T01:16:23.161Z,90.52
2018-01-21T01:17:03.737Z,90.52
2018-01-21T01:17:44.259Z,90.61
2018-01-21T01:18:24.799Z,89.94
2018-01-21T01:19:05.372Z,89.94
2018-01-21T01:19:45.929Z,89.85
2018-01-21T01:20:26.401Z,90.52
2018-01-21T01:21:07.055Z,90.33
2018-01-21T01:21:49.491Z,90.33
2018-01-21T01:22:30.023Z,90.7
2018-01-21T01:23:10.517Z,90.23
2018-01-21T01:23:51.079Z,89.94
2018-01-21T01:24:31.595Z,89.85
2018-01-21T01:25:12.136Z,89.37
2018-01-21T01:25:52.657Z,89.7
2018-01-21T01:26:33.192Z,89.85
2018-01-21T01:27:13.776Z,89.85
2018-01-21T01:27:54.321Z,90.7
2018-01-21T01:28:34.879Z,90.23
2018-01-21T01:29:15.391Z,90.28
2018-01-21T01:29:55.972Z,89.89
2018-01-21T01:30:36.494Z,89.51
2018-01-21T01:31:17.053Z,89.89
2018-01-21T01:31:57.597Z,89.56
2018-01-21T01:32:38.193Z,89.66
2018-01-21T01:33:18.781Z,89.37
2018-01-21T01:33:59.300Z,89.47
2018-01-21T01:34:39.842Z,90.42
2018-01-21T01:35:20.419Z,90.52
2018-01-21T01:36:00.938Z,90.8
2018-01-21T01:36:41.495Z,90.61
2018-01-21T01:37:22.041Z,90.42
2018-01-21T01:38:02.561Z,91.47
2018-01-21T01:38:43.096Z,91.18
2018-01-21T01:39:23.620Z,91.08
2018-01-21T01:40:04.095Z,90.33
2018-01-21T01:40:44.679Z,90.42
2018-01-21T01:41:25.232Z,90.61
2018-01-21T01:42:05.787Z,90.99
2018-01-21T01:42:46.332Z,90.7
2018-01-21T01:43:26.910Z,90.7
2018-01-21T01:44:07.448Z,90.61
2018-01-21T01:44:48.012Z,90.42
2018-01-21T01:45:28.485Z,89.66
2018-01-21T01:46:09.006Z,90.52
2018-01-21T01:46:49.503Z,90.42
2018-01-21T01:47:30.060Z,91.18
2018-01-21T01:48:10.613Z,91.18
2018-01-21T01:48:51.145Z,90.89
2018-01-21T01:49:31.726Z,90.52
2018-01-21T01:50:12.239Z,90.14
2018-01-21T01:50:52.725Z,90.7
2018-01-21T01:51:33.294Z,90.14
2018-01-21T01:52:13.828Z,90.33
2018-01-21T01:52:54.422Z,90.14
2018-01-21T01:53:34.889Z,90.23
2018-01-21T01:54:15.449Z,90.23
2018-01-21T01:54:55.996Z,90.61
2018-01-21T01:55:36.526Z,90.61
2018-01-21T01:56:17.092Z,91.08
2018-01-21T01:56:57.666Z,91.47
2018-01-21T01:57:38.193Z,91.47
2018-01-21T01:58:18.736Z,90.42
2018-01-21T01:58:59.272Z,91.47
2018-01-21T01:59:39.762Z,90.42
2018-01-21T02:00:20.331Z,90.7
2018-01-21T02:01:00.880Z,90.61
2018-01-21T02:01:41.380Z,90.61
2018-01-21T02:02:21.956Z,90.42
2018-01-21T02:03:02.510Z,90.52
2018-01-21T02:03:43.649Z,90.61
2018-01-21T02:04:24.079Z,90.8
2018-01-21T02:05:04.602Z,90.42
2018-01-21T02:05:45.113Z,90.52
2018-01-21T02:06:25.663Z,90.23
2018-01-21T02:07:06.238Z,90.61
2018-01-21T02:07:46.751Z,90.52
2018-01-21T02:08:27.312Z,90.33
2018-01-21T02:09:07.844Z,90.42
2018-01-21T02:09:48.345Z,90.33
2018-01-21T02:10:28.876Z,89.94
2018-01-21T02:11:09.424Z,89.89
2018-01-21T02:11:50.039Z,89.89
2018-01-21T02:12:30.546Z,90.18
2018-01-21T02:13:11.083Z,89.75
2018-01-21T02:13:51.606Z,89.66
2018-01-21T02:14:32.143Z,89.56
2018-01-21T02:15:12.654Z,89.37
2018-01-21T02:15:53.310Z,90.04
2018-01-21T02:16:33.840Z,89.85
2018-01-21T02:17:14.392Z,89.47
2018-01-21T02:17:54.938Z,89.85
2018-01-21T02:18:35.510Z,89.56
2018-01-21T02:19:16.110Z,89.66
2018-01-21T02:19:56.598Z,89.75
2018-01-21T02:20:37.150Z,89.56
2018-01-21T02:21:17.659Z,89.66
2018-01-21T02:21:58.214Z,89.47
2018-01-21T02:22:38.743Z,89.18
2018-01-21T02:23:19.275Z,88.9
2018-01-21T02:23:59.823Z,88.94
2018-01-21T02:24:40.398Z,88.8
2018-01-21T02:25:20.973Z,88.94
2018-01-21T02:26:01.537Z,88.85
2018-01-21T02:26:42.121Z,88.46
2018-01-21T02:27:22.690Z,88.56
2018-01-21T02:28:03.220Z,89
2018-01-21T02:28:43.759Z,88.46
2018-01-21T02:29:24.345Z,88.42
2018-01-21T02:30:04.850Z,87.99
2018-01-21T02:30:45.337Z,88.33
2018-01-21T02:31:25.901Z,88.23
2018-01-21T02:32:06.445Z,89.09
2018-01-21T02:32:46.962Z,88.61
2018-01-21T02:33:27.504Z,88.33
2018-01-21T02:34:08.079Z,88.9
2018-01-21T02:34:48.622Z,89.09
2018-01-21T02:35:29.238Z,89.18
2018-01-21T02:36:09.723Z,88.9
2018-01-21T02:36:50.309Z,89.28
2018-01-21T02:37:30.843Z,89.56
2018-01-21T02:38:11.399Z,89.66
2018-01-21T02:38:51.900Z,88.71
2018-01-21T02:39:32.443Z,89
2018-01-21T02:40:12.986Z,88.71
2018-01-21T02:40:53.480Z,88.42
2018-01-21T02:41:33.992Z,88.13
2018-01-21T02:42:14.526Z,88.23
2018-01-21T02:42:55.085Z,87.95
2018-01-21T02:43:35.661Z,87.95
2018-01-21T02:44:16.214Z,89
2018-01-21T02:44:56.709Z,89.37
2018-01-21T02:45:37.253Z,90.14
2018-01-21T02:46:17.772Z,89.37
2018-01-21T02:46:58.269Z,89.47
2018-01-21T02:47:38.805Z,89.28
2018-01-21T02:48:19.352Z,89.47
2018-01-21T02:48:59.867Z,89
2018-01-21T02:49:40.486Z,88.71
2018-01-21T02:50:20.961Z,89
2018-01-21T02:51:01.469Z,88.33
2018-01-21T02:51:41.979Z,88.9
2018-01-21T02:52:22.549Z,88.71
2018-01-21T02:53:03.059Z,89.18
2018-01-21T02:53:43.633Z,88.8
2018-01-21T02:54:24.228Z,88.9
2018-01-21T02:55:04.835Z,88.33
2018-01-21T02:55:45.342Z,88.04
2018-01-21T02:56:25.862Z,88.04
2018-01-21T02:57:06.390Z,88.04
2018-01-21T02:57:46.916Z,88.61
2018-01-21T02:58:27.446Z,88.33
2018-01-21T02:59:07.943Z,87.95
2018-01-21T02:59:48.498Z,88.13
2018-01-21T03:00:29.014Z,88.52
2018-01-21T03:01:09.528Z,88.42
2018-01-21T03:01:50.063Z,89
2018-01-21T03:02:30.596Z,89.37
2018-01-21T03:03:11.145Z,88.8
2018-01-21T03:03:51.640Z,89.09
2018-01-21T03:04:32.225Z,89.75
2018-01-21T03:05:12.748Z,88.71
2018-01-21T03:05:53.272Z,88.9
2018-01-21T03:06:33.830Z,88.9
2018-01-21T03:07:14.316Z,88.33
2018-01-21T03:07:54.850Z,88.13
2018-01-21T03:08:35.392Z,87.76
2018-01-21T03:09:15.908Z,87.66
2018-01-21T03:09:56.450Z,88.13
2018-01-21T03:10:36.975Z,88.04
2018-01-21T03:11:17.497Z,87.95
2018-01-21T03:11:58.026Z,88.04
2018-01-21T03:12:38.531Z,87.8
2018-01-21T03:13:19.111Z,87.19
2018-01-21T03:13:59.588Z,87.19
2018-01-21T03:14:40.301Z,86.99
2018-01-21T03:15:20.822Z,88.04
2018-01-21T03:16:01.349Z,87.85
2018-01-21T03:16:41.886Z,87.85
2018-01-21T03:17:22.387Z,88.04
2018-01-21T03:18:02.975Z,88.33
2018-01-21T03:18:43.482Z,87.95
2018-01-21T03:19:24.031Z,87.95
2018-01-21T03:20:04.596Z,88.33
2018-01-21T03:20:45.097Z,87.57
2018-01-21T03:21:25.643Z,87.19
2018-01-21T03:22:06.200Z,87.09
2018-01-21T03:22:46.713Z,87.28
2018-01-21T03:23:27.265Z,87.57
2018-01-21T03:24:07.797Z,87.95
2018-01-21T03:24:48.306Z,88.04
2018-01-21T03:25:28.887Z,88.33
2018-01-21T03:26:09.399Z,88.33
2018-01-21T03:26:49.943Z,88.42
2018-01-21T03:27:30.511Z,88.42
2018-01-21T03:28:11.082Z,87.95
2018-01-21T03:28:51.643Z,88.13
2018-01-21T03:29:32.198Z,88.52
2018-01-21T03:30:12.699Z,88.13
2018-01-21T03:30:53.290Z,88.13
2018-01-21T03:31:33.861Z,87.95
2018-01-21T03:32:14.356Z,88.52
2018-01-21T03:32:54.908Z,89.09
2018-01-21T03:33:35.439Z,88.52
2018-01-21T03:34:15.988Z,88.23
2018-01-21T03:34:56.520Z,88.71
2018-01-21T03:35:37.053Z,87.66
2018-01-21T03:36:17.594Z,87.85
2018-01-21T03:36:58.159Z,88.42
2018-01-21T03:37:38.707Z,88.13
2018-01-21T03:38:19.226Z,88.61
2018-01-21T03:38:59.844Z,88.33
2018-01-21T03:39:40.345Z,88.9
2018-01-21T03:40:20.893Z,88.13
2018-01-21T03:41:01.374Z,88.04
2018-01-21T03:41:41.930Z,88.23
2018-01-21T03:42:22.464Z,88.52
2018-01-21T03:43:03.016Z,88.61
2018-01-21T03:43:43.526Z,88.9
2018-01-21T03:44:24.112Z,88.42
2018-01-21T03:45:04.657Z,88.23
2018-01-21T03:45:45.177Z,88.13
2018-01-21T03:46:25.707Z,88.04
2018-01-21T03:47:06.231Z,87.95
2018-01-21T03:47:46.801Z,88.23
2018-01-21T03:48:27.363Z,88.33
2018-01-21T03:49:07.869Z,87.85
2018-01-21T03:49:48.337Z,88.13
2018-01-21T03:50:28.903Z,87.85
2018-01-21T03:51:09.473Z,88.04
2018-01-21T03:51:50.053Z,87.76
2018-01-21T03:52:30.609Z,86.9
2018-01-21T03:53:11.144Z,86.99
2018-01-21T03:53:51.728Z,87.09
2018-01-21T03:54:32.253Z,87.28
2018-01-21T03:55:12.799Z,87.38
2018-01-21T03:55:53.292Z,87.47
2018-01-21T03:56:33.836Z,87.38
2018-01-21T03:57:14.345Z,87.47
2018-01-21T03:57:54.874Z,87.95
2018-01-21T03:58:35.435Z,88.04
2018-01-21T03:59:16.010Z,88.04
2018-01-21T03:59:56.516Z,88.42
2018-01-21T04:00:37.102Z,88.13
2018-01-21T04:01:17.601Z,87.66
2018-01-21T04:01:58.144Z,87.57
2018-01-21T04:02:38.662Z,86.99
2018-01-21T04:03:19.194Z,87.19
2018-01-21T04:03:59.772Z,87.47
2018-01-21T04:04:40.263Z,86.9
2018-01-21T04:05:20.851Z,86.8
2018-01-21T04:06:01.287Z,86.61
2018-01-21T04:06:41.872Z,86.52
2018-01-21T04:07:22.371Z,86.43
2018-01-21T04:08:02.941Z,86.52
2018-01-21T04:08:43.445Z,86.18
2018-01-21T04:09:23.981Z,86.61
2018-01-21T04:10:04.457Z,86.05
2018-01-21T04:10:44.978Z,86.71
2018-01-21T04:11:25.523Z,87.28
2018-01-21T04:12:06.064Z,86.43
2018-01-21T04:12:46.578Z,86.61
2018-01-21T04:13:27.112Z,86.9
2018-01-21T04:14:07.627Z,86.61
2018-01-21T04:14:48.137Z,87.28
2018-01-21T04:15:28.683Z,87.38
2018-01-21T04:16:09.238Z,87.28
2018-01-21T04:16:50.621Z,86.99
2018-01-21T04:17:31.159Z,87.28
2018-01-21T04:18:11.708Z,86.9
2018-01-21T04:18:52.225Z,87.09
2018-01-21T04:19:32.760Z,86.8
2018-01-21T04:20:13.293Z,86.52
2018-01-21T04:20:53.858Z,86.71
2018-01-21T04:21:34.378Z,86.71
2018-01-21T04:22:14.934Z,86.9
2018-01-21T04:22:55.510Z,87.19
2018-01-21T04:23:36.006Z,87.19
2018-01-21T04:24:16.561Z,87.19
2018-01-21T04:24:57.092Z,87.09
2018-01-21T04:25:37.622Z,86.9
2018-01-21T04:26:18.141Z,86.9
2018-01-21T04:26:58.716Z,87.28
2018-01-21T04:27:39.270Z,87.19
2018-01-21T04:28:19.788Z,86.99
2018-01-21T04:29:00.346Z,86.71
2018-01-21T04:29:40.887Z,86.33
2018-01-21T04:30:21.427Z,86.14
2018-01-21T04:31:02.018Z,85.95
2018-01-21T04:31:42.603Z,85.38
2018-01-21T04:32:23.096Z,85.95
2018-01-21T04:33:03.690Z,85.66
2018-01-21T04:33:44.217Z,85.57
2018-01-21T04:34:24.767Z,85.19
2018-01-21T04:35:05.298Z,85.47
2018-01-21T04:35:45.819Z,85.95
2018-01-21T04:36:26.343Z,85.47
2018-01-21T04:37:06.933Z,85.19
2018-01-21T04:37:47.427Z,85.38
2018-01-21T04:38:27.998Z,85.38
2018-01-21T04:39:08.528Z,85.47
2018-01-21T04:39:49.086Z,85.57
2018-01-21T04:40:29.584Z,85.19
2018-01-21T04:41:10.105Z,85.1
2018-01-21T04:41:50.793Z,84.33
2018-01-21T04:42:31.335Z,84.91
2018-01-21T04:43:11.893Z,84.52
2018-01-21T04:43:52.397Z,84.43
2018-01-21T04:44:32.950Z,85.19
2018-01-21T04:45:13.489Z,85
2018-01-21T04:45:54.017Z,85.19
2018-01-21T04:46:34.558Z,85.38
2018-01-21T04:47:15.095Z,85.1
2018-01-21T04:47:55.625Z,85.38
2018-01-21T04:48:36.133Z,84.33
2018-01-21T04:49:16.709Z,85.1
2018-01-21T04:49:57.239Z,84.91
2018-01-21T04:50:37.767Z,85.19
2018-01-21T04:51:18.322Z,85.86
2018-01-21T04:51:58.862Z,85.86
2018-01-21T04:52:39.408Z,85.95
2018-01-21T04:53:19.950Z,86.14
2018-01-21T04:54:00.474Z,86.24
2018-01-21T04:54:41.020Z,85.76
2018-01-21T04:55:21.568Z,85.76
2018-01-21T04:56:02.144Z,86.05
2018-01-21T04:56:42.657Z,85.47
2018-01-21T04:57:23.224Z,85.76
2018-01-21T04:58:03.737Z,85.86
2018-01-21T04:58:44.219Z,85.47
2018-01-21T04:59:24.797Z,85.76
2018-01-21T05:00:05.277Z,86.14
2018-01-21T05:00:45.853Z,85.86
2018-01-21T05:01:26.414Z,85.95
2018-01-21T05:02:06.955Z,85.57
2018-01-21T05:02:47.498Z,85.47
2018-01-21T05:03:27.970Z,85.95
2018-01-21T05:04:08.516Z,86.14
2018-01-21T05:04:49.074Z,86.8
2018-01-21T05:05:29.642Z,86.24
2018-01-21T05:06:10.162Z,86.05
2018-01-21T05:06:50.702Z,86.33
2018-01-21T05:07:31.206Z,86.05
2018-01-21T05:08:11.755Z,86.14
2018-01-21T05:08:52.309Z,86.24
2018-01-21T05:09:32.829Z,85.57
2018-01-21T05:10:13.359Z,85.86
2018-01-21T05:10:53.964Z,86.24
2018-01-21T05:11:34.467Z,86.52
2018-01-21T05:12:14.976Z,86.33
2018-01-21T05:12:55.534Z,86.33
2018-01-21T05:13:36.030Z,86.05
2018-01-21T05:14:16.606Z,86.24
2018-01-21T05:14:57.164Z,86.38
2018-01-21T05:15:37.689Z,87.34
2018-01-21T05:16:18.281Z,87.24
2018-01-21T05:16:58.776Z,86.95
2018-01-21T05:17:39.298Z,87.34
2018-01-21T05:18:19.878Z,87.52
2018-01-21T05:19:00.470Z,87.81
2018-01-21T05:19:40.953Z,87.71
2018-01-21T05:20:21.676Z,87.05
2018-01-21T05:21:02.305Z,87.24
2018-01-21T05:21:42.839Z,87.24
2018-01-21T05:22:23.430Z,88.23
2018-01-21T05:23:03.912Z,88
2018-01-21T05:23:44.465Z,88.09
2018-01-21T05:24:25.010Z,87.9
2018-01-21T05:25:05.587Z,88.28
2018-01-21T05:25:46.080Z,88.38
2018-01-21T05:26:26.633Z,88.28
2018-01-21T05:27:07.211Z,88.57
2018-01-21T05:27:47.729Z,88.38
2018-01-21T05:28:28.311Z,88.47
2018-01-21T05:29:08.836Z,88
2018-01-21T05:29:49.338Z,88
2018-01-21T05:30:29.897Z,88.09
2018-01-21T05:31:10.462Z,88.19
2018-01-21T05:31:50.995Z,87.9
2018-01-21T05:32:31.503Z,87.62
2018-01-21T05:33:12.076Z,88
2018-01-21T05:33:52.602Z,88
2018-01-21T05:34:33.138Z,88
2018-01-21T05:35:13.704Z,88.38
2018-01-21T05:35:54.215Z,87.71
2018-01-21T05:36:34.793Z,87.9
2018-01-21T05:37:15.318Z,87.9
2018-01-21T05:37:55.818Z,87.81
2018-01-21T05:38:36.346Z,87.24
2018-01-21T05:39:16.884Z,87.62
2018-01-21T05:39:57.423Z,87.71
2018-01-21T05:40:37.951Z,87.24
2018-01-21T05:41:18.526Z,87.34
2018-01-21T05:41:59.208Z,88
2018-01-21T05:42:39.746Z,87.62
2018-01-21T05:43:20.239Z,87.52
2018-01-21T05:44:00.769Z,87.62
2018-01-21T05:44:41.322Z,87.24
2018-01-21T05:45:21.851Z,87.14
2018-01-21T05:46:02.394Z,87.24
2018-01-21T05:46:42.952Z,87.34
2018-01-21T05:47:23.489Z,87.14
2018-01-21T05:48:03.978Z,87.34
2018-01-21T05:48:44.526Z,87.14
2018-01-21T05:49:25.058Z,87.52
2018-01-21T05:50:05.585Z,87.52
2018-01-21T05:50:46.157Z,87.9
2018-01-21T05:51:26.690Z,88.47
2018-01-21T05:52:07.222Z,88
2018-01-21T05:52:47.753Z,88
2018-01-21T05:53:28.306Z,88.09
2018-01-21T05:54:08.833Z,87.43
2018-01-21T05:54:49.335Z,86.95
2018-01-21T05:55:30.009Z,86.95
2018-01-21T05:56:10.621Z,87.14
2018-01-21T05:56:51.196Z,87.05
2018-01-21T05:57:31.642Z,87.24
2018-01-21T05:58:12.235Z,86.95
2018-01-21T05:58:52.705Z,87.05
2018-01-21T05:59:33.258Z,86.57
2018-01-21T06:00:13.820Z,86.76
2018-01-21T06:00:54.324Z,86.57
2018-01-21T06:01:34.909Z,86.95
2018-01-21T06:02:15.445Z,86.67
2018-01-21T06:02:55.996Z,86.47
2018-01-21T06:03:36.544Z,86.47
2018-01-21T06:04:17.044Z,86.67
2018-01-21T06:04:57.580Z,86.19
2018-01-21T06:05:38.165Z,86.38
2018-01-21T06:06:18.719Z,86
2018-01-21T06:06:59.183Z,85.62
2018-01-21T06:07:39.736Z,85.53
2018-01-21T06:08:20.297Z,85.91
2018-01-21T06:09:00.810Z,85.72
2018-01-21T06:09:41.308Z,85.91
2018-01-21T06:10:21.845Z,85.91
2018-01-21T06:11:02.413Z,85.62
2018-01-21T06:11:42.954Z,86.14
2018-01-21T06:12:23.458Z,85.19
2018-01-21T06:13:04.000Z,84.91
2018-01-21T06:13:44.578Z,84.95
2018-01-21T06:14:25.145Z,85.1
2018-01-21T06:15:05.728Z,84.91
2018-01-21T06:15:46.257Z,85.05
2018-01-21T06:16:26.819Z,84.77
2018-01-21T06:17:07.301Z,85.34
2018-01-21T06:17:47.930Z,85.34
2018-01-21T06:18:28.425Z,84.58
2018-01-21T06:19:08.915Z,85.05
2018-01-21T06:19:49.532Z,84.67
2018-01-21T06:20:30.026Z,84.58
2018-01-21T06:21:10.498Z,84.72
2018-01-21T06:21:51.098Z,84.72
2018-01-21T06:22:31.592Z,84.24
2018-01-21T06:23:12.149Z,83.76
2018-01-21T06:23:52.660Z,83.95
2018-01-21T06:24:33.228Z,84.33
2018-01-21T06:25:13.838Z,83.86
2018-01-21T06:25:54.365Z,84.33
2018-01-21T06:26:34.776Z,83.86
2018-01-21T06:27:15.344Z,83.95
2018-01-21T06:27:55.887Z,83.95
2018-01-21T06:28:36.431Z,83.76
2018-01-21T06:29:16.985Z,83.86
2018-01-21T06:29:57.502Z,83.48
2018-01-21T06:30:38.150Z,83.53
2018-01-21T06:31:18.685Z,83.53
2018-01-21T06:31:59.190Z,84.14
2018-01-21T06:32:39.724Z,83.44
2018-01-21T06:33:20.247Z,83.53
2018-01-21T06:34:00.795Z,84.14
2018-01-21T06:34:41.406Z,83.86
2018-01-21T06:35:21.986Z,83.76
2018-01-21T06:36:02.487Z,83.25
2018-01-21T06:36:43.072Z,83.72
2018-01-21T06:37:23.593Z,83.72
2018-01-21T06:38:04.100Z,83.82
2018-01-21T06:38:44.623Z,83.82
2018-01-21T06:39:25.146Z,84.01
2018-01-21T06:40:05.767Z,83.91
2018-01-21T06:40:46.250Z,84.67
2018-01-21T06:41:26.784Z,84.29
2018-01-21T06:42:07.343Z,83.72
2018-01-21T06:42:47.886Z,84.1
2018-01-21T06:43:28.495Z,83.91
2018-01-21T06:44:08.956Z,84.1
2018-01-21T06:44:49.518Z,84.48
2018-01-21T06:45:30.085Z,84.48
2018-01-21T06:46:10.627Z,84.58
2018-01-21T06:46:51.187Z,83.72
2018-01-21T06:47:31.733Z,83.91
2018-01-21T06:48:12.267Z,83.72
2018-01-21T06:48:52.788Z,83.95
2018-01-21T06:49:33.341Z,83.1
2018-01-21T06:50:13.935Z,83.72
2018-01-21T06:50:54.473Z,83.06
2018-01-21T06:51:35.042Z,82.96
2018-01-21T06:52:15.562Z,83.48
2018-01-21T06:52:56.068Z,83.06
2018-01-21T06:53:36.722Z,82.87
2018-01-21T06:54:17.197Z,83.44
2018-01-21T06:54:57.767Z,83.34
2018-01-21T06:55:38.259Z,83.72
2018-01-21T06:56:18.859Z,83.72
2018-01-21T06:56:59.353Z,83.06
2018-01-21T06:57:39.879Z,83.44
2018-01-21T06:58:20.369Z,83.62
2018-01-21T06:59:00.907Z,84.1
2018-01-21T06:59:41.452Z,83.34
2018-01-21T07:00:22.046Z,84.1
2018-01-21T07:01:02.608Z,83.25
2018-01-21T07:01:43.125Z,84.58
2018-01-21T07:02:23.747Z,83.91
2018-01-21T07:03:04.322Z,83.82
2018-01-21T07:03:44.759Z,83.82
2018-01-21T07:04:25.296Z,84.01
2018-01-21T07:05:05.860Z,83.82
2018-01-21T07:05:46.400Z,83.34
2018-01-21T07:06:26.993Z,83.67
2018-01-21T07:07:07.506Z,83.82
2018-01-21T07:07:48.072Z,83.25
2018-01-21T07:08:28.617Z,83.72
2018-01-21T07:09:09.186Z,83.82
2018-01-21T07:09:49.770Z,84.01
2018-01-21T07:10:30.268Z,83.82
2018-01-21T07:11:10.847Z,83.91
2018-01-21T07:11:51.417Z,84.39
2018-01-21T07:12:31.946Z,83.72
2018-01-21T07:13:12.538Z,83.34
2018-01-21T07:13:52.994Z,83.44
2018-01-21T07:14:33.565Z,83.53
2018-01-21T07:15:14.155Z,83.53
2018-01-21T07:15:54.695Z,83.53
2018-01-21T07:16:35.262Z,83.53
2018-01-21T07:17:15.763Z,83.82
2018-01-21T07:17:56.310Z,84.1
2018-01-21T07:18:38.961Z,83.2
2018-01-21T07:19:19.510Z,83.25
2018-01-21T07:20:00.001Z,83.53
2018-01-21T07:20:40.534Z,83.44
2018-01-21T07:21:24.696Z,83.15
2018-01-21T07:22:05.366Z,83.62
2018-01-21T07:22:45.923Z,83.25
2018-01-21T07:23:26.469Z,82.73
2018-01-21T07:24:07.006Z,83.06
2018-01-21T07:24:47.550Z,82.29
2018-01-21T07:25:28.074Z,83.25
2018-01-21T07:26:08.593Z,83.06
2018-01-21T07:26:49.165Z,83.82
2018-01-21T07:27:29.751Z,83.44
2018-01-21T07:28:10.286Z,83.53
2018-01-21T07:28:50.886Z,83.62
2018-01-21T07:29:31.487Z,83.15
2018-01-21T07:30:12.257Z,83.62
2018-01-21T07:30:52.785Z,84.06
2018-01-21T07:31:33.324Z,83.49
2018-01-21T07:32:13.936Z,84.44
2018-01-21T07:32:54.406Z,84.77
2018-01-21T07:33:34.928Z,84.67
2018-01-21T07:34:15.971Z,84.1
2018-01-21T07:34:56.434Z,84.48
2018-01-21T07:35:37.005Z,84.67
2018-01-21T07:36:17.565Z,84.58
2018-01-21T07:36:58.078Z,84.67
2018-01-21T07:37:38.572Z,85.24
2018-01-21T07:38:19.090Z,84.95
2018-01-21T07:38:59.631Z,84.39
2018-01-21T07:39:40.164Z,83.53
2018-01-21T07:40:20.666Z,82.77
2018-01-21T07:41:01.202Z,82.77
2018-01-21T07:41:42.495Z,83.25
2018-01-21T07:42:23.054Z,83.25
2018-01-21T07:43:03.616Z,83.49
2018-01-21T07:43:44.137Z,83.72
2018-01-21T07:44:24.695Z,83.49
2018-01-21T07:45:05.178Z,83.78
2018-01-21T07:45:45.719Z,83.15
2018-01-21T07:46:26.254Z,83.49
2018-01-21T07:47:06.848Z,84.44
2018-01-21T07:47:47.432Z,83.44
2018-01-21T07:48:27.962Z,83.59
2018-01-21T07:49:08.485Z,83.3
2018-01-21T07:49:49.016Z,83.68
2018-01-21T07:50:29.581Z,83.49
2018-01-21T07:51:10.117Z,83.59
2018-01-21T07:51:50.688Z,83.15
2018-01-21T07:52:31.214Z,83.15
2018-01-21T07:53:11.725Z,83.91
2018-01-21T07:53:52.309Z,83.25
2018-01-21T07:54:32.869Z,84.01
2018-01-21T07:55:14.949Z,83.15
2018-01-21T07:55:55.522Z,82.96
2018-01-21T07:56:36.130Z,83.44
2018-01-21T07:57:16.570Z,83.53
2018-01-21T07:57:57.107Z,83.62
2018-01-21T07:58:37.607Z,83.44
2018-01-21T07:59:18.148Z,83.82
2018-01-21T07:59:58.686Z,83.15
2018-01-21T08:00:39.262Z,83.15
2018-01-21T08:01:19.817Z,83.44
2018-01-21T08:02:00.373Z,83.58
2018-01-21T08:02:40.975Z,83.76
2018-01-21T08:03:22.176Z,82.49
2018-01-21T08:04:02.028Z,81.73
2018-01-21T08:04:42.595Z,82.77
2018-01-21T08:05:23.137Z,82.96
2018-01-21T08:06:03.661Z,83.25
2018-01-21T08:06:44.249Z,82.91
2018-01-21T08:07:24.847Z,82.62
2018-01-21T08:08:05.349Z,82.71
2018-01-21T08:08:45.917Z,82.91
2018-01-21T08:09:26.472Z,82.24
2018-01-21T08:10:07.035Z,82.15
2018-01-21T08:10:47.557Z,81.67
2018-01-21T08:11:28.062Z,81.16
2018-01-21T08:12:08.612Z,81.35
2018-01-21T08:12:49.608Z,81.82
2018-01-21T08:13:29.864Z,82.58
2018-01-21T08:14:10.533Z,82.1
2018-01-21T08:14:51.036Z,82.68
2018-01-21T08:15:31.749Z,83.01
2018-01-21T08:16:12.257Z,83.97
2018-01-21T08:16:52.806Z,83.49
2018-01-21T08:17:33.338Z,83.49
2018-01-21T08:18:13.870Z,83.34
2018-01-21T08:18:54.435Z,83.78
2018-01-21T08:19:35.154Z,83.91
2018-01-21T08:20:15.643Z,83.06
2018-01-21T08:20:56.213Z,83.06
2018-01-21T08:21:36.938Z,83.15
2018-01-21T08:22:17.492Z,83.06
2018-01-21T08:22:57.985Z,83.82
2018-01-21T08:23:38.664Z,83.62
2018-01-21T08:24:19.207Z,82.58
2018-01-21T08:24:59.720Z,83.82
2018-01-21T08:25:40.341Z,82.77
2018-01-21T08:26:20.842Z,83.15
2018-01-21T08:27:01.390Z,82.2
2018-01-21T08:27:42.138Z,82.68
2018-01-21T08:28:22.935Z,82.49
2018-01-21T08:29:03.719Z,82.87
2018-01-21T08:29:44.172Z,83.11
2018-01-21T08:30:24.724Z,83.68
2018-01-21T08:31:05.305Z,83.59
2018-01-21T08:31:45.915Z,83.59
2018-01-21T08:32:26.433Z,83.44
2018-01-21T08:33:07.060Z,83.06
2018-01-21T08:33:47.552Z,83.06
2018-01-21T08:34:28.105Z,83.15
2018-01-21T08:35:08.650Z,83.25
2018-01-21T08:35:49.201Z,83.06
2018-01-21T08:36:29.753Z,82.68
2018-01-21T08:37:10.286Z,82.49
2018-01-21T08:37:50.831Z,83.06
2018-01-21T08:38:31.352Z,82.96
2018-01-21T08:39:11.896Z,82.87
2018-01-21T08:39:52.471Z,83.34
2018-01-21T08:40:33.069Z,83.15
2018-01-21T08:41:13.607Z,83.15
2018-01-21T08:41:54.226Z,83.15
2018-01-21T08:42:34.742Z,82.49
2018-01-21T08:43:15.250Z,82.87
2018-01-21T08:43:55.867Z,82.87
2018-01-21T08:44:37.986Z,83.82
2018-01-21T08:45:18.512Z,82.87
2018-01-21T08:45:59.069Z,82.29
2018-01-21T08:46:39.620Z,82.1